sensor_id;sensor_type;location;lat;lon;timestamp;pressure;altitude;pressure_sealevel;temperature;humidity
59055;BME280;44845;51.444;7.460;2023-04-26T00:00:17;99975.56;;;4.72;67.72
59055;BME280;44845;51.444;7.460;2023-04-26T00:02:42;99976.41;;;4.71;67.86
59055;BME280;44845;51.444;7.460;2023-04-26T00:05:08;99979.09;;;4.76;67.86
59055;BME280;44845;51.444;7.460;2023-04-26T00:07:33;99981.75;;;4.79;67.43
59055;BME280;44845;51.444;7.460;2023-04-26T00:09:59;99979.31;;;4.87;67.15
59055;BME280;44845;51.444;7.460;2023-04-26T00:12:25;99988.59;;;4.73;67.77
59055;BME280;44845;51.444;7.460;2023-04-26T00:14:50;99984.22;;;4.71;68.05
59055;BME280;44845;51.444;7.460;2023-04-26T00:17:15;99979.03;;;4.71;67.84
59055;BME280;44845;51.444;7.460;2023-04-26T00:19:41;99983.34;;;4.70;67.67
59055;BME280;44845;51.444;7.460;2023-04-26T00:22:06;99986.81;;;4.71;67.54
59055;BME280;44845;51.444;7.460;2023-04-26T00:24:33;99979.03;;;4.71;67.59
59055;BME280;44845;51.444;7.460;2023-04-26T00:26:58;99985.78;;;4.62;67.99
59055;BME280;44845;51.444;7.460;2023-04-26T00:29:26;99982.28;;;4.60;68.49
59055;BME280;44845;51.444;7.460;2023-04-26T00:31:51;99981.59;;;4.69;67.56
59055;BME280;44845;51.444;7.460;2023-04-26T00:34:19;99979.13;;;4.77;67.27
59055;BME280;44845;51.444;7.460;2023-04-26T00:36:44;99977.16;;;4.64;67.76
59055;BME280;44845;51.444;7.460;2023-04-26T00:39:10;99982.22;;;4.57;68.07
59055;BME280;44845;51.444;7.460;2023-04-26T00:41:35;99977.03;;;4.57;67.49
59055;BME280;44845;51.444;7.460;2023-04-26T00:44:00;99978.41;;;4.38;67.98
59055;BME280;44845;51.444;7.460;2023-04-26T00:46:26;99976.81;;;4.45;68.28
59055;BME280;44845;51.444;7.460;2023-04-26T00:48:53;99966.53;;;4.51;68.27
59055;BME280;44845;51.444;7.460;2023-04-26T00:51:19;99971.66;;;4.48;68.51
59055;BME280;44845;51.444;7.460;2023-04-26T00:53:44;99968.22;;;4.49;68.45
59055;BME280;44845;51.444;7.460;2023-04-26T00:56:11;99969.19;;;4.54;68.14
59055;BME280;44845;51.444;7.460;2023-04-26T00:58:37;99963.91;;;4.49;68.23
59055;BME280;44845;51.444;7.460;2023-04-26T01:01:02;99962.97;;;4.46;68.69
59055;BME280;44845;51.444;7.460;2023-04-26T01:03:27;99969.84;;;4.44;69.01
59055;BME280;44845;51.444;7.460;2023-04-26T01:05:54;99969.03;;;4.46;68.46
59055;BME280;44845;51.444;7.460;2023-04-26T01:08:20;99962.16;;;4.48;68.48
59055;BME280;44845;51.444;7.460;2023-04-26T01:10:47;99960.28;;;4.39;68.23
59055;BME280;44845;51.444;7.460;2023-04-26T01:13:13;99971.41;;;4.35;68.69
59055;BME280;44845;51.444;7.460;2023-04-26T01:15:44;99957.78;;;4.46;67.92
59055;BME280;44845;51.444;7.460;2023-04-26T01:18:10;99963.94;;;4.53;68.10
59055;BME280;44845;51.444;7.460;2023-04-26T01:20:35;99968.00;;;4.38;68.64
59055;BME280;44845;51.444;7.460;2023-04-26T01:23:01;99962.16;;;4.50;68.26
59055;BME280;44845;51.444;7.460;2023-04-26T01:25:26;99969.34;;;4.62;67.96
59055;BME280;44845;51.444;7.460;2023-04-26T01:27:52;99968.28;;;4.52;67.97
59055;BME280;44845;51.444;7.460;2023-04-26T01:30:17;99971.50;;;4.38;68.48
59055;BME280;44845;51.444;7.460;2023-04-26T01:32:43;99969.69;;;4.34;68.67
59055;BME280;44845;51.444;7.460;2023-04-26T01:35:08;99972.34;;;4.37;68.44
59055;BME280;44845;51.444;7.460;2023-04-26T01:37:34;99973.19;;;4.36;68.33
59055;BME280;44845;51.444;7.460;2023-04-26T01:39:59;99973.00;;;4.27;68.77
59055;BME280;44845;51.444;7.460;2023-04-26T01:42:24;99979.94;;;4.28;68.63
59055;BME280;44845;51.444;7.460;2023-04-26T01:44:50;99978.78;;;4.13;69.06
59055;BME280;44845;51.444;7.460;2023-04-26T01:47:15;99979.00;;;4.24;68.69
59055;BME280;44845;51.444;7.460;2023-04-26T01:49:41;99976.38;;;4.23;69.36
59055;BME280;44845;51.444;7.460;2023-04-26T01:52:06;99976.41;;;4.24;68.60
59055;BME280;44845;51.444;7.460;2023-04-26T01:54:31;99977.13;;;4.17;69.62
59055;BME280;44845;51.444;7.460;2023-04-26T01:56:57;99973.47;;;4.07;69.41
59055;BME280;44845;51.444;7.460;2023-04-26T01:59:22;99981.47;;;4.18;69.49
59055;BME280;44845;51.444;7.460;2023-04-26T02:01:47;99976.97;;;4.09;69.93
59055;BME280;44845;51.444;7.460;2023-04-26T02:04:13;99966.69;;;4.14;69.72
59055;BME280;44845;51.444;7.460;2023-04-26T02:06:38;99972.84;;;4.19;69.34
59055;BME280;44845;51.444;7.460;2023-04-26T02:09:04;99976.00;;;4.04;70.02
59055;BME280;44845;51.444;7.460;2023-04-26T02:11:30;99971.66;;;4.03;69.84
59055;BME280;44845;51.444;7.460;2023-04-26T02:13:55;99973.38;;;4.02;70.12
59055;BME280;44845;51.444;7.460;2023-04-26T02:16:20;99982.81;;;3.99;70.04
59055;BME280;44845;51.444;7.460;2023-04-26T02:18:46;99975.09;;;4.02;69.94
59055;BME280;44845;51.444;7.460;2023-04-26T02:21:12;99974.31;;;4.06;70.00
59055;BME280;44845;51.444;7.460;2023-04-26T02:23:37;99976.13;;;4.10;69.91
59055;BME280;44845;51.444;7.460;2023-04-26T02:26:03;99976.00;;;4.04;69.97
59055;BME280;44845;51.444;7.460;2023-04-26T02:28:29;99975.88;;;3.98;70.36
59055;BME280;44845;51.444;7.460;2023-04-26T02:30:54;99973.41;;;4.04;70.02
59055;BME280;44845;51.444;7.460;2023-04-26T02:33:21;99969.91;;;4.03;69.59
59055;BME280;44845;51.444;7.460;2023-04-26T02:35:47;99970.69;;;3.98;70.00
59055;BME280;44845;51.444;7.460;2023-04-26T02:38:12;99979.81;;;4.20;69.68
59055;BME280;44845;51.444;7.460;2023-04-26T02:40:37;99974.19;;;4.00;69.41
59055;BME280;44845;51.444;7.460;2023-04-26T02:43:03;99975.88;;;3.98;69.80
59055;BME280;44845;51.444;7.460;2023-04-26T02:45:28;99974.19;;;4.00;69.78
59055;BME280;44845;51.444;7.460;2023-04-26T02:47:53;99974.25;;;4.03;69.70
59055;BME280;44845;51.444;7.460;2023-04-26T02:50:19;99968.81;;;3.90;69.73
59055;BME280;44845;51.444;7.460;2023-04-26T02:52:45;99965.53;;;4.01;69.45
59055;BME280;44845;51.444;7.460;2023-04-26T02:55:10;99965.34;;;3.91;69.99
59055;BME280;44845;51.444;7.460;2023-04-26T02:57:35;99966.94;;;3.85;69.70
59055;BME280;44845;51.444;7.460;2023-04-26T03:00:01;99972.16;;;3.86;69.87
59055;BME280;44845;51.444;7.460;2023-04-26T03:02:26;99964.22;;;3.78;70.56
59055;BME280;44845;51.444;7.460;2023-04-26T03:04:51;99963.34;;;3.78;70.48
59055;BME280;44845;51.444;7.460;2023-04-26T03:07:17;99959.06;;;3.80;70.55
59055;BME280;44845;51.444;7.460;2023-04-26T03:09:42;99967.06;;;3.91;70.28
59055;BME280;44845;51.444;7.460;2023-04-26T03:12:08;99963.47;;;3.84;70.26
59055;BME280;44845;51.444;7.460;2023-04-26T03:14:34;99968.53;;;3.78;70.30
59055;BME280;44845;51.444;7.460;2023-04-26T03:17:00;99963.44;;;3.81;70.50
59055;BME280;44845;51.444;7.460;2023-04-26T03:19:25;99963.28;;;3.75;70.11
59055;BME280;44845;51.444;7.460;2023-04-26T03:21:52;99960.75;;;3.78;70.23
59055;BME280;44845;51.444;7.460;2023-04-26T03:24:18;99965.06;;;3.77;70.50
59055;BME280;44845;51.444;7.460;2023-04-26T03:26:43;99955.38;;;3.68;70.65
59055;BME280;44845;51.444;7.460;2023-04-26T03:29:08;99959.91;;;3.79;70.64
59055;BME280;44845;51.444;7.460;2023-04-26T03:31:34;99961.59;;;3.77;70.62
59055;BME280;44845;51.444;7.460;2023-04-26T03:34:00;99959.91;;;3.79;70.69
59055;BME280;44845;51.444;7.460;2023-04-26T03:36:25;99956.41;;;3.77;70.56
59055;BME280;44845;51.444;7.460;2023-04-26T03:38:53;99953.88;;;3.80;70.67
59055;BME280;44845;51.444;7.460;2023-04-26T03:41:18;99966.31;;;3.95;69.93
59055;BME280;44845;51.444;7.460;2023-04-26T03:43:43;99955.69;;;3.84;70.46
59055;BME280;44845;51.444;7.460;2023-04-26T03:46:09;99954.00;;;3.86;70.32
59055;BME280;44845;51.444;7.460;2023-04-26T03:48:34;99954.84;;;3.85;70.25
59055;BME280;44845;51.444;7.460;2023-04-26T03:51:00;99958.34;;;3.87;69.70
59055;BME280;44845;51.444;7.460;2023-04-26T03:53:26;99958.09;;;3.75;70.14
59055;BME280;44845;51.444;7.460;2023-04-26T03:55:51;99961.50;;;3.74;70.59
59055;BME280;44845;51.444;7.460;2023-04-26T03:58:16;99960.56;;;3.68;70.26
59055;BME280;44845;51.444;7.460;2023-04-26T04:00:42;99955.47;;;3.73;70.96
59055;BME280;44845;51.444;7.460;2023-04-26T04:03:07;99957.19;;;3.72;71.13
59055;BME280;44845;51.444;7.460;2023-04-26T04:05:33;99960.31;;;3.57;71.12
59055;BME280;44845;51.444;7.460;2023-04-26T04:07:58;99956.00;;;3.58;71.48
59055;BME280;44845;51.444;7.460;2023-04-26T04:10:24;99949.13;;;3.60;70.88
59055;BME280;44845;51.444;7.460;2023-04-26T04:12:50;99946.72;;;3.68;70.89
59055;BME280;44845;51.444;7.460;2023-04-26T04:15:17;99947.59;;;3.68;70.46
59055;BME280;44845;51.444;7.460;2023-04-26T04:17:43;99950.13;;;3.67;70.61
59055;BME280;44845;51.444;7.460;2023-04-26T04:20:09;99959.63;;;3.66;70.88
59055;BME280;44845;51.444;7.460;2023-04-26T04:22:35;99950.94;;;3.64;71.24
59055;BME280;44845;51.444;7.460;2023-04-26T04:25:00;99953.59;;;3.66;70.99
59055;BME280;44845;51.444;7.460;2023-04-26T04:27:28;99959.69;;;3.69;70.98
59055;BME280;44845;51.444;7.460;2023-04-26T04:29:54;99952.69;;;3.64;70.53
59055;BME280;44845;51.444;7.460;2023-04-26T04:32:20;99954.22;;;3.57;71.12
59055;BME280;44845;51.444;7.460;2023-04-26T04:34:47;99952.50;;;3.56;71.55
59055;BME280;44845;51.444;7.460;2023-04-26T04:37:12;99949.91;;;3.56;71.63
59055;BME280;44845;51.444;7.460;2023-04-26T04:39:38;99964.69;;;3.60;71.18
59055;BME280;44845;51.444;7.460;2023-04-26T04:42:03;99965.66;;;3.64;71.08
59055;BME280;44845;51.444;7.460;2023-04-26T04:44:29;99971.56;;;3.58;71.46
59055;BME280;44845;51.444;7.460;2023-04-26T04:46:54;99969.88;;;3.60;71.61
59055;BME280;44845;51.444;7.460;2023-04-26T04:49:20;99964.81;;;3.66;71.50
59055;BME280;44845;51.444;7.460;2023-04-26T04:51:46;99978.72;;;3.68;71.62
59055;BME280;44845;51.444;7.460;2023-04-26T04:54:12;99982.91;;;3.63;72.24
59055;BME280;44845;51.444;7.460;2023-04-26T04:56:38;99975.47;;;3.79;71.69
59055;BME280;44845;51.444;7.460;2023-04-26T04:59:04;99977.16;;;3.77;71.50
59055;BME280;44845;51.444;7.460;2023-04-26T05:01:30;99973.03;;;3.87;71.70
59055;BME280;44845;51.444;7.460;2023-04-26T05:03:57;99976.50;;;3.86;71.54
59055;BME280;44845;51.444;7.460;2023-04-26T05:06:22;99978.22;;;3.87;71.77
59055;BME280;44845;51.444;7.460;2023-04-26T05:08:48;99979.31;;;3.97;71.38
59055;BME280;44845;51.444;7.460;2023-04-26T05:11:13;99982.63;;;3.89;71.67
59055;BME280;44845;51.444;7.460;2023-04-26T05:13:39;99985.22;;;3.89;71.86
59055;BME280;44845;51.444;7.460;2023-04-26T05:16:04;99982.69;;;3.92;71.52
59055;BME280;44845;51.444;7.460;2023-04-26T05:18:30;99981.06;;;3.98;71.77
59055;BME280;44845;51.444;7.460;2023-04-26T05:20:56;99983.59;;;3.94;71.68
59055;BME280;44845;51.444;7.460;2023-04-26T05:23:21;99988.06;;;4.02;72.05
59055;BME280;44845;51.444;7.460;2023-04-26T05:25:47;99994.06;;;3.99;71.76
59055;BME280;44845;51.444;7.460;2023-04-26T05:28:12;99995.97;;;4.08;71.92
59055;BME280;44845;51.444;7.460;2023-04-26T05:30:38;99995.13;;;4.09;72.21
59055;BME280;44845;51.444;7.460;2023-04-26T05:33:04;100001.50;;;4.25;71.62
59055;BME280;44845;51.444;7.460;2023-04-26T05:35:29;100011.09;;;4.28;71.49
59055;BME280;44845;51.444;7.460;2023-04-26T05:37:55;100005.97;;;4.31;72.00
59055;BME280;44845;51.444;7.460;2023-04-26T05:40:20;100006.13;;;4.37;71.29
59055;BME280;44845;51.444;7.460;2023-04-26T05:42:45;100010.59;;;4.45;71.91
59055;BME280;44845;51.444;7.460;2023-04-26T05:45:11;100010.47;;;4.40;72.19
59055;BME280;44845;51.444;7.460;2023-04-26T05:47:36;100010.47;;;4.40;72.17
59055;BME280;44845;51.444;7.460;2023-04-26T05:50:02;100016.09;;;4.62;71.66
59055;BME280;44845;51.444;7.460;2023-04-26T05:52:27;100013.34;;;4.54;72.08
59055;BME280;44845;51.444;7.460;2023-04-26T05:54:53;100019.53;;;4.59;72.57
59055;BME280;44845;51.444;7.460;2023-04-26T05:57:18;100022.28;;;4.69;72.37
59055;BME280;44845;51.444;7.460;2023-04-26T05:59:43;100024.31;;;4.86;71.82
59055;BME280;44845;51.444;7.460;2023-04-26T06:02:09;100022.72;;;4.92;71.60
59055;BME280;44845;51.444;7.460;2023-04-26T06:04:35;100020.03;;;4.89;71.54
59055;BME280;44845;51.444;7.460;2023-04-26T06:07:01;100026.19;;;4.94;71.76
59055;BME280;44845;51.444;7.460;2023-04-26T06:09:26;100017.72;;;5.03;71.47
59055;BME280;44845;51.444;7.460;2023-04-26T06:11:51;100023.13;;;5.16;71.21
59055;BME280;44845;51.444;7.460;2023-04-26T06:14:17;100022.13;;;5.09;71.64
59055;BME280;44845;51.444;7.460;2023-04-26T06:16:42;100034.44;;;5.18;70.98
59055;BME280;44845;51.444;7.460;2023-04-26T06:19:07;100024.25;;;5.32;70.12
59055;BME280;44845;51.444;7.460;2023-04-26T06:21:33;100023.50;;;5.38;70.54
59055;BME280;44845;51.444;7.460;2023-04-26T06:23:58;100031.38;;;5.44;70.48
59055;BME280;44845;51.444;7.460;2023-04-26T06:26:23;100029.06;;;5.63;69.30
59055;BME280;44845;51.444;7.460;2023-04-26T06:28:49;100030.72;;;5.58;69.97
59055;BME280;44845;51.444;7.460;2023-04-26T06:31:14;100034.38;;;5.69;69.18
59055;BME280;44845;51.444;7.460;2023-04-26T06:33:40;100039.75;;;5.82;69.29
59055;BME280;44845;51.444;7.460;2023-04-26T06:36:10;100041.53;;;5.84;69.60
59055;BME280;44845;51.444;7.460;2023-04-26T06:38:35;100030.38;;;5.95;68.92
59055;BME280;44845;51.444;7.460;2023-04-26T06:41:01;100029.59;;;6.01;69.49
59055;BME280;44845;51.444;7.460;2023-04-26T06:43:26;100030.53;;;6.04;68.81
59055;BME280;44845;51.444;7.460;2023-04-26T06:45:52;100031.59;;;6.17;66.98
59055;BME280;44845;51.444;7.460;2023-04-26T06:48:17;100030.78;;;6.22;65.36
59055;BME280;44845;51.444;7.460;2023-04-26T06:50:42;100034.31;;;6.27;67.09
59055;BME280;44845;51.444;7.460;2023-04-26T06:53:08;100042.22;;;6.35;64.76
59055;BME280;44845;51.444;7.460;2023-04-26T06:55:33;100042.28;;;6.39;62.93
59055;BME280;44845;51.444;7.460;2023-04-26T06:57:59;100047.38;;;6.28;63.85
59055;BME280;44845;51.444;7.460;2023-04-26T07:00:24;100046.50;;;6.29;65.79
59055;BME280;44845;51.444;7.460;2023-04-26T07:02:53;100040.44;;;6.29;66.83
59055;BME280;44845;51.444;7.460;2023-04-26T07:05:18;100038.78;;;6.37;66.61
59055;BME280;44845;51.444;7.460;2023-04-26T07:07:44;100049.31;;;6.47;66.46
59055;BME280;44845;51.444;7.460;2023-04-26T07:10:09;100045.09;;;6.57;64.94
59055;BME280;44845;51.444;7.460;2023-04-26T07:12:35;100042.53;;;6.58;66.02
59055;BME280;44845;51.444;7.460;2023-04-26T07:15:00;100044.38;;;6.70;66.21
59055;BME280;44845;51.444;7.460;2023-04-26T07:17:26;100042.75;;;6.80;65.39
59055;BME280;44845;51.444;7.460;2023-04-26T07:19:51;100043.69;;;6.85;64.14
59055;BME280;44845;51.444;7.460;2023-04-26T07:22:17;100034.16;;;6.91;62.32
59055;BME280;44845;51.444;7.460;2023-04-26T07:24:42;100035.09;;;6.97;61.90
59055;BME280;44845;51.444;7.460;2023-04-26T07:27:08;100036.94;;;7.08;62.93
59055;BME280;44845;51.444;7.460;2023-04-26T07:29:33;100043.19;;;7.24;63.27
59055;BME280;44845;51.444;7.460;2023-04-26T07:31:58;100036.19;;;7.20;62.31
59055;BME280;44845;51.444;7.460;2023-04-26T07:34:24;100039.69;;;7.22;64.38
59055;BME280;44845;51.444;7.460;2023-04-26T07:36:49;100032.81;;;7.34;63.43
59055;BME280;44845;51.444;7.460;2023-04-26T07:39:15;100039.84;;;7.41;61.98
59055;BME280;44845;51.444;7.460;2023-04-26T07:41:40;100044.13;;;7.36;60.83
59055;BME280;44845;51.444;7.460;2023-04-26T07:44:06;100038.97;;;7.43;61.19
59055;BME280;44845;51.444;7.460;2023-04-26T07:46:32;100039.88;;;7.47;58.80
59055;BME280;44845;51.444;7.460;2023-04-26T07:48:58;100034.66;;;7.47;58.32
59055;BME280;44845;51.444;7.460;2023-04-26T07:51:23;100031.25;;;7.58;57.31
59055;BME280;44845;51.444;7.460;2023-04-26T07:53:48;100033.03;;;7.65;58.46
59055;BME280;44845;51.444;7.460;2023-04-26T07:56:14;100035.69;;;7.68;59.93
59055;BME280;44845;51.444;7.460;2023-04-26T07:58:40;100039.25;;;7.84;59.90
59055;BME280;44845;51.444;7.460;2023-04-26T08:01:05;100037.47;;;7.77;59.50
59055;BME280;44845;51.444;7.460;2023-04-26T08:03:31;100034.84;;;7.69;58.27
59055;BME280;44845;51.444;7.460;2023-04-26T08:05:57;100040.94;;;7.71;59.98
59055;BME280;44845;51.444;7.460;2023-04-26T08:08:26;100038.38;;;7.81;59.76
59055;BME280;44845;51.444;7.460;2023-04-26T08:10:51;100032.28;;;7.79;59.84
59055;BME280;44845;51.444;7.460;2023-04-26T08:13:17;100030.59;;;7.90;59.88
59055;BME280;44845;51.444;7.460;2023-04-26T08:15:42;100034.03;;;7.81;55.74
59055;BME280;44845;51.444;7.460;2023-04-26T08:18:07;100027.13;;;7.93;56.33
59055;BME280;44845;51.444;7.460;2023-04-26T08:20:33;100022.81;;;7.98;56.76
59055;BME280;44845;51.444;7.460;2023-04-26T08:22:58;100029.84;;;8.10;57.18
59055;BME280;44845;51.444;7.460;2023-04-26T08:25:24;100030.78;;;8.23;58.52
59055;BME280;44845;51.444;7.460;2023-04-26T08:27:49;100019.41;;;8.13;53.89
59055;BME280;44845;51.444;7.460;2023-04-26T08:30:16;100021.09;;;7.98;54.15
59055;BME280;44845;51.444;7.460;2023-04-26T08:32:41;100028.97;;;8.09;54.33
59055;BME280;44845;51.444;7.460;2023-04-26T08:35:07;100023.72;;;8.05;57.26
59055;BME280;44845;51.444;7.460;2023-04-26T08:37:33;100019.38;;;8.05;55.22
59055;BME280;44845;51.444;7.460;2023-04-26T08:40:00;100022.94;;;8.18;57.41
59055;BME280;44845;51.444;7.460;2023-04-26T08:42:26;100026.44;;;8.27;55.88
59055;BME280;44845;51.444;7.460;2023-04-26T08:44:53;100030.03;;;8.48;56.18
59055;BME280;44845;51.444;7.460;2023-04-26T08:47:27;100026.59;;;8.61;54.20
59055;BME280;44845;51.444;7.460;2023-04-26T08:49:55;100021.41;;;8.78;55.20
59055;BME280;44845;51.444;7.460;2023-04-26T08:52:27;100017.09;;;8.96;53.41
59055;BME280;44845;51.444;7.460;2023-04-26T08:54:53;100018.81;;;8.86;53.13
59055;BME280;44845;51.444;7.460;2023-04-26T08:57:21;100016.19;;;8.93;52.30
59055;BME280;44845;51.444;7.460;2023-04-26T08:59:48;100024.03;;;8.77;51.46
59055;BME280;44845;51.444;7.460;2023-04-26T09:02:17;100023.16;;;8.72;48.92
59055;BME280;44845;51.444;7.460;2023-04-26T09:04:44;100025.75;;;8.72;48.25
59055;BME280;44845;51.444;7.460;2023-04-26T09:07:14;100028.34;;;8.62;50.51
59055;BME280;44845;51.444;7.460;2023-04-26T09:09:47;100037.03;;;8.58;53.18
59055;BME280;44845;51.444;7.460;2023-04-26T09:15:34;100037.06;;;8.64;54.04
59055;BME280;44845;51.444;7.460;2023-04-26T09:18:17;100030.09;;;8.60;52.13
59055;BME280;44845;51.444;7.460;2023-04-26T09:20:43;100030.09;;;8.73;51.97
59055;BME280;44845;51.444;7.460;2023-04-26T09:23:09;100027.53;;;8.79;53.96
59055;BME280;44845;51.444;7.460;2023-04-26T09:25:36;100025.78;;;8.90;53.33
59055;BME280;44845;51.444;7.460;2023-04-26T09:28:02;100023.19;;;9.03;54.60
59055;BME280;44845;51.444;7.460;2023-04-26T09:30:29;100022.31;;;8.95;51.53
59055;BME280;44845;51.444;7.460;2023-04-26T09:32:59;100028.44;;;9.03;54.72
59055;BME280;44845;51.444;7.460;2023-04-26T09:35:35;100026.69;;;9.18;52.80
59055;BME280;44845;51.444;7.460;2023-04-26T09:38:02;100019.72;;;9.32;52.53
59055;BME280;44845;51.444;7.460;2023-04-26T09:40:29;100018.00;;;9.41;48.51
59055;BME280;44845;51.444;7.460;2023-04-26T09:42:56;100019.72;;;9.45;52.16
59055;BME280;44845;51.444;7.460;2023-04-26T09:45:22;100027.56;;;9.37;50.41
59055;BME280;44845;51.444;7.460;2023-04-26T09:47:48;100015.38;;;9.30;50.60
59055;BME280;44845;51.444;7.460;2023-04-26T09:50:32;100021.47;;;9.11;49.90
59055;BME280;44845;51.444;7.460;2023-04-26T09:52:58;100024.06;;;8.99;49.13
59055;BME280;44845;51.444;7.460;2023-04-26T09:55:28;100021.47;;;8.99;52.29
59055;BME280;44845;51.444;7.460;2023-04-26T09:57:56;100029.28;;;9.00;51.69
59055;BME280;44845;51.444;7.460;2023-04-26T10:00:25;100030.13;;;8.85;48.66
59055;BME280;44845;51.444;7.460;2023-04-26T10:02:52;100031.78;;;8.55;48.16
59055;BME280;44845;51.444;7.460;2023-04-26T10:05:18;100025.75;;;8.73;49.88
59055;BME280;44845;51.444;7.460;2023-04-26T10:07:45;100024.94;;;8.82;49.87
59055;BME280;44845;51.444;7.460;2023-04-26T10:10:11;100027.50;;;8.77;49.62
59055;BME280;44845;51.444;7.460;2023-04-26T10:12:37;100024.06;;;9.00;49.38
59055;BME280;44845;51.444;7.460;2023-04-26T10:15:05;100014.47;;;8.88;49.38
59055;BME280;44845;51.444;7.460;2023-04-26T10:17:32;100007.47;;;8.72;46.86
59055;BME280;44845;51.444;7.460;2023-04-26T10:19:58;100009.13;;;8.54;47.53
59055;BME280;44845;51.444;7.460;2023-04-26T10:22:30;100013.53;;;8.71;48.16
59055;BME280;44845;51.444;7.460;2023-04-26T10:24:57;100010.94;;;8.80;50.53
59055;BME280;44845;51.444;7.460;2023-04-26T10:35:28;100013.59;;;9.00;50.18
59055;BME280;44845;51.444;7.460;2023-04-26T10:40:33;100004.88;;;9.08;47.47
59055;BME280;44845;51.444;7.460;2023-04-26T10:45:39;100010.16;;;9.31;50.91
59055;BME280;44845;51.444;7.460;2023-04-26T10:48:27;100008.38;;;9.18;48.92
59055;BME280;44845;51.444;7.460;2023-04-26T10:59:20;99991.78;;;9.47;52.97
59055;BME280;44845;51.444;7.460;2023-04-26T11:01:46;99992.69;;;9.40;48.25
59055;BME280;44845;51.444;7.460;2023-04-26T11:04:12;100002.28;;;9.06;47.55
59055;BME280;44845;51.444;7.460;2023-04-26T11:06:53;99995.31;;;9.26;51.04
59055;BME280;44845;51.444;7.460;2023-04-26T11:09:39;99991.81;;;9.34;51.14
59055;BME280;44845;51.444;7.460;2023-04-26T11:12:10;99998.78;;;9.45;50.19
59055;BME280;44845;51.444;7.460;2023-04-26T11:14:36;99989.19;;;9.49;49.16
59055;BME280;44845;51.444;7.460;2023-04-26T11:17:05;99997.91;;;9.63;50.54
59055;BME280;44845;51.444;7.460;2023-04-26T11:19:31;99989.16;;;9.67;46.80
59055;BME280;44845;51.444;7.460;2023-04-26T11:21:58;99980.41;;;9.64;49.04
59055;BME280;44845;51.444;7.460;2023-04-26T11:24:31;99984.78;;;9.73;49.22
59055;BME280;44845;51.444;7.460;2023-04-26T11:26:57;99986.53;;;9.75;47.62
59055;BME280;44845;51.444;7.460;2023-04-26T11:29:24;99989.97;;;9.87;47.47
59055;BME280;44845;51.444;7.460;2023-04-26T11:31:53;99990.84;;;9.84;48.23
59055;BME280;44845;51.444;7.460;2023-04-26T11:34:33;99982.16;;;9.66;45.07
59055;BME280;44845;51.444;7.460;2023-04-26T11:37:01;99988.28;;;9.67;47.71
59055;BME280;44845;51.444;7.460;2023-04-26T11:39:26;99993.50;;;9.72;49.04
59055;BME280;44845;51.444;7.460;2023-04-26T11:42:03;99991.81;;;9.53;47.51
59055;BME280;44845;51.444;7.460;2023-04-26T11:44:29;99991.75;;;9.69;47.61
59055;BME280;44845;51.444;7.460;2023-04-26T11:46:55;99997.00;;;9.69;48.56
59055;BME280;44845;51.444;7.460;2023-04-26T11:49:20;99991.75;;;9.75;48.04
59055;BME280;44845;51.444;7.460;2023-04-26T11:51:50;99993.53;;;9.70;45.59
59055;BME280;44845;51.444;7.460;2023-04-26T11:54:35;99984.78;;;9.62;45.76
59055;BME280;44845;51.444;7.460;2023-04-26T11:57:12;99988.28;;;9.67;49.25
59055;BME280;44845;51.444;7.460;2023-04-26T11:59:38;99984.81;;;9.68;47.87
59055;BME280;44845;51.444;7.460;2023-04-26T12:02:06;99986.50;;;9.85;50.50
59055;BME280;44845;51.444;7.460;2023-04-26T12:04:32;99989.97;;;9.90;49.10
59055;BME280;44845;51.444;7.460;2023-04-26T12:06:58;99991.69;;;9.99;47.75
59055;BME280;44845;51.444;7.460;2023-04-26T12:09:26;99996.00;;;10.08;48.91
59055;BME280;44845;51.444;7.460;2023-04-26T12:11:56;99988.28;;;9.78;45.03
59055;BME280;44845;51.444;7.460;2023-04-26T12:14:33;99987.38;;;9.85;44.58
59055;BME280;44845;51.444;7.460;2023-04-26T12:16:59;99984.72;;;9.96;45.55
59055;BME280;44845;51.444;7.460;2023-04-26T12:19:26;99987.34;;;9.91;47.68
59055;BME280;44845;51.444;7.460;2023-04-26T12:21:51;99988.28;;;9.67;44.45
59055;BME280;44845;51.444;7.460;2023-04-26T12:24:24;99993.50;;;9.83;43.70
59055;BME280;44845;51.444;7.460;2023-04-26T12:26:50;99989.06;;;9.96;43.98
59055;BME280;44845;51.444;7.460;2023-04-26T12:29:16;99989.94;;;10.02;45.74
59055;BME280;44845;51.444;7.460;2023-04-26T12:31:42;99984.75;;;9.90;43.85
59055;BME280;44845;51.444;7.460;2023-04-26T12:34:07;99987.31;;;10.07;45.75
59055;BME280;44845;51.444;7.460;2023-04-26T12:36:32;99982.22;;;9.41;45.47
59055;BME280;44845;51.444;7.460;2023-04-26T12:38:58;99985.72;;;9.17;45.98
59055;BME280;44845;51.444;7.460;2023-04-26T12:41:25;99985.72;;;9.21;45.85
59055;BME280;44845;51.444;7.460;2023-04-26T12:43:50;99986.56;;;9.53;47.09
59055;BME280;44845;51.444;7.460;2023-04-26T12:46:15;99987.44;;;9.51;46.27
59055;BME280;44845;51.444;7.460;2023-04-26T12:48:41;99991.75;;;9.75;45.05
59055;BME280;44845;51.444;7.460;2023-04-26T12:51:06;99991.72;;;9.91;47.60
59055;BME280;44845;51.444;7.460;2023-04-26T12:53:31;99988.16;;;10.14;47.99
59055;BME280;44845;51.444;7.460;2023-04-26T12:55:57;99991.59;;;10.25;45.49
59055;BME280;44845;51.444;7.460;2023-04-26T12:58:23;99988.25;;;9.79;43.10
59055;BME280;44845;51.444;7.460;2023-04-26T13:00:49;99979.59;;;9.55;43.99
59055;BME280;44845;51.444;7.460;2023-04-26T13:03:15;99984.78;;;9.77;44.67
59055;BME280;44845;51.444;7.460;2023-04-26T13:05:41;99981.22;;;9.91;48.65
59055;BME280;44845;51.444;7.460;2023-04-26T13:08:07;99982.00;;;10.15;48.12
59055;BME280;44845;51.444;7.460;2023-04-26T13:10:32;99979.38;;;10.18;44.30
59055;BME280;44845;51.444;7.460;2023-04-26T13:12:57;99978.47;;;10.29;42.93
59055;BME280;44845;51.444;7.460;2023-04-26T13:15:23;99982.00;;;10.18;41.71
59055;BME280;44845;51.444;7.460;2023-04-26T13:17:49;99988.16;;;10.14;42.47
59055;BME280;44845;51.444;7.460;2023-04-26T13:20:14;99979.38;;;10.18;41.82
59055;BME280;44845;51.444;7.460;2023-04-26T13:22:40;99978.50;;;10.24;41.69
59055;BME280;44845;51.444;7.460;2023-04-26T13:25:07;99974.13;;;10.21;43.48
59055;BME280;44845;51.444;7.460;2023-04-26T13:27:32;99982.81;;;10.39;45.51